sensor_id;sensor_type;location;lat;lon;timestamp;P1;durP1;ratioP1;P2;durP2;ratioP2
61909;SDS011;47865;52.086;5.410;2022-10-28T00:01:05;18.90;;;8.25;;
61909;SDS011;47865;52.086;5.410;2022-10-28T00:03:36;17.70;;;8.32;;
61909;SDS011;47865;52.086;5.410;2022-10-28T00:06:05;18.63;;;8.73;;
61909;SDS011;47865;52.086;5.410;2022-10-28T00:08:34;17.42;;;8.57;;
61909;SDS011;47865;52.086;5.410;2022-10-28T00:11:05;19.67;;;8.07;;
61909;SDS011;47865;52.086;5.410;2022-10-28T00:13:33;17.60;;;7.63;;
61909;SDS011;47865;52.086;5.410;2022-10-28T00:16:08;17.50;;;8.80;;
61909;SDS011;47865;52.086;5.410;2022-10-28T00:18:37;18.27;;;8.55;;
61909;SDS011;47865;52.086;5.410;2022-10-28T00:21:05;15.18;;;8.25;;
61909;SDS011;47865;52.086;5.410;2022-10-28T00:23:43;15.27;;;7.88;;
61909;SDS011;47865;52.086;5.410;2022-10-28T00:26:11;18.48;;;8.30;;
61909;SDS011;47865;52.086;5.410;2022-10-28T00:28:44;17.23;;;7.43;;
61909;SDS011;47865;52.086;5.410;2022-10-28T00:31:13;18.25;;;8.02;;
61909;SDS011;47865;52.086;5.410;2022-10-28T00:33:41;14.80;;;7.47;;
61909;SDS011;47865;52.086;5.410;2022-10-28T00:38:35;21.67;;;9.40;;
61909;SDS011;47865;52.086;5.410;2022-10-28T00:41:02;17.13;;;9.18;;
61909;SDS011;47865;52.086;5.410;2022-10-28T00:43:35;22.77;;;8.93;;
61909;SDS011;47865;52.086;5.410;2022-10-28T00:46:12;19.15;;;8.48;;
61909;SDS011;47865;52.086;5.410;2022-10-28T00:48:54;24.38;;;9.32;;
61909;SDS011;47865;52.086;5.410;2022-10-28T00:51:32;14.23;;;8.30;;
61909;SDS011;47865;52.086;5.410;2022-10-28T00:54:00;16.30;;;8.55;;
61909;SDS011;47865;52.086;5.410;2022-10-28T00:56:29;18.15;;;8.93;;
61909;SDS011;47865;52.086;5.410;2022-10-28T00:58:59;19.08;;;7.53;;
61909;SDS011;47865;52.086;5.410;2022-10-28T01:01:29;19.60;;;8.80;;
61909;SDS011;47865;52.086;5.410;2022-10-28T01:03:56;16.27;;;8.73;;
61909;SDS011;47865;52.086;5.410;2022-10-28T01:06:23;20.65;;;8.57;;
61909;SDS011;47865;52.086;5.410;2022-10-28T01:08:52;22.45;;;9.18;;
61909;SDS011;47865;52.086;5.410;2022-10-28T01:11:31;18.50;;;8.77;;
61909;SDS011;47865;52.086;5.410;2022-10-28T01:14:38;23.83;;;8.63;;
61909;SDS011;47865;52.086;5.410;2022-10-28T01:22:29;26.20;;;8.27;;
61909;SDS011;47865;52.086;5.410;2022-10-28T01:28:16;19.20;;;8.77;;
61909;SDS011;47865;52.086;5.410;2022-10-28T01:33:57;17.17;;;8.90;;
61909;SDS011;47865;52.086;5.410;2022-10-28T01:41:37;16.65;;;7.80;;
61909;SDS011;47865;52.086;5.410;2022-10-28T01:44:22;15.75;;;7.80;;
61909;SDS011;47865;52.086;5.410;2022-10-28T01:47:45;16.45;;;7.53;;
61909;SDS011;47865;52.086;5.410;2022-10-28T01:50:09;19.60;;;8.23;;
61909;SDS011;47865;52.086;5.410;2022-10-28T01:52:41;17.75;;;7.47;;
61909;SDS011;47865;52.086;5.410;2022-10-28T01:55:12;14.05;;;7.80;;
61909;SDS011;47865;52.086;5.410;2022-10-28T01:57:41;19.65;;;8.90;;
61909;SDS011;47865;52.086;5.410;2022-10-28T02:00:10;17.55;;;8.18;;
61909;SDS011;47865;52.086;5.410;2022-10-28T02:02:38;14.60;;;7.32;;
61909;SDS011;47865;52.086;5.410;2022-10-28T02:07:58;15.43;;;7.03;;
61909;SDS011;47865;52.086;5.410;2022-10-28T02:10:53;14.82;;;6.85;;
61909;SDS011;47865;52.086;5.410;2022-10-28T02:13:30;16.90;;;7.15;;
61909;SDS011;47865;52.086;5.410;2022-10-28T02:18:45;14.18;;;7.38;;
61909;SDS011;47865;52.086;5.410;2022-10-28T02:22:02;16.23;;;7.53;;
61909;SDS011;47865;52.086;5.410;2022-10-28T02:27:09;17.33;;;7.25;;
61909;SDS011;47865;52.086;5.410;2022-10-28T02:29:45;13.82;;;7.30;;
61909;SDS011;47865;52.086;5.410;2022-10-28T02:32:25;13.20;;;6.50;;
61909;SDS011;47865;52.086;5.410;2022-10-28T02:34:57;14.00;;;6.65;;
61909;SDS011;47865;52.086;5.410;2022-10-28T02:37:27;16.35;;;6.30;;
61909;SDS011;47865;52.086;5.410;2022-10-28T02:40:01;16.00;;;6.25;;
61909;SDS011;47865;52.086;5.410;2022-10-28T02:42:35;15.27;;;5.95;;
61909;SDS011;47865;52.086;5.410;2022-10-28T02:45:16;13.35;;;6.00;;
61909;SDS011;47865;52.086;5.410;2022-10-28T02:47:47;13.45;;;6.55;;
61909;SDS011;47865;52.086;5.410;2022-10-28T02:50:24;15.20;;;6.18;;
61909;SDS011;47865;52.086;5.410;2022-10-28T02:52:57;18.27;;;6.93;;
61909;SDS011;47865;52.086;5.410;2022-10-28T02:55:27;13.55;;;6.68;;
61909;SDS011;47865;52.086;5.410;2022-10-28T02:57:59;13.60;;;6.35;;
61909;SDS011;47865;52.086;5.410;2022-10-28T03:00:26;11.88;;;6.32;;
61909;SDS011;47865;52.086;5.410;2022-10-28T03:02:53;12.88;;;6.57;;
61909;SDS011;47865;52.086;5.410;2022-10-28T03:05:19;14.73;;;6.25;;
61909;SDS011;47865;52.086;5.410;2022-10-28T03:07:46;14.07;;;6.90;;
61909;SDS011;47865;52.086;5.410;2022-10-28T03:10:13;10.60;;;5.47;;
61909;SDS011;47865;52.086;5.410;2022-10-28T03:12:40;14.07;;;6.22;;
61909;SDS011;47865;52.086;5.410;2022-10-28T03:15:07;12.68;;;6.05;;
61909;SDS011;47865;52.086;5.410;2022-10-28T03:17:34;11.52;;;6.25;;
61909;SDS011;47865;52.086;5.410;2022-10-28T03:20:01;12.80;;;6.05;;
61909;SDS011;47865;52.086;5.410;2022-10-28T03:22:28;14.57;;;6.30;;
61909;SDS011;47865;52.086;5.410;2022-10-28T03:24:55;15.75;;;7.03;;
61909;SDS011;47865;52.086;5.410;2022-10-28T03:27:21;22.08;;;7.50;;
61909;SDS011;47865;52.086;5.410;2022-10-28T03:29:48;14.15;;;6.22;;
61909;SDS011;47865;52.086;5.410;2022-10-28T03:32:15;14.00;;;6.72;;
61909;SDS011;47865;52.086;5.410;2022-10-28T03:34:42;16.58;;;7.03;;
61909;SDS011;47865;52.086;5.410;2022-10-28T03:37:08;16.60;;;6.60;;
61909;SDS011;47865;52.086;5.410;2022-10-28T03:39:35;16.00;;;6.88;;
61909;SDS011;47865;52.086;5.410;2022-10-28T03:42:02;14.13;;;6.78;;
61909;SDS011;47865;52.086;5.410;2022-10-28T03:44:29;16.02;;;7.13;;
61909;SDS011;47865;52.086;5.410;2022-10-28T03:46:56;18.50;;;7.43;;
61909;SDS011;47865;52.086;5.410;2022-10-28T03:49:22;20.38;;;7.13;;
61909;SDS011;47865;52.086;5.410;2022-10-28T03:51:49;19.02;;;7.72;;
61909;SDS011;47865;52.086;5.410;2022-10-28T03:54:16;18.67;;;7.53;;
61909;SDS011;47865;52.086;5.410;2022-10-28T03:56:42;16.85;;;7.88;;
61909;SDS011;47865;52.086;5.410;2022-10-28T03:59:09;21.35;;;8.60;;
61909;SDS011;47865;52.086;5.410;2022-10-28T04:01:38;19.00;;;6.75;;
61909;SDS011;47865;52.086;5.410;2022-10-28T04:04:05;17.13;;;7.35;;
61909;SDS011;47865;52.086;5.410;2022-10-28T04:06:32;14.77;;;7.18;;
61909;SDS011;47865;52.086;5.410;2022-10-28T04:08:58;19.95;;;7.68;;
61909;SDS011;47865;52.086;5.410;2022-10-28T04:11:25;18.15;;;7.15;;
61909;SDS011;47865;52.086;5.410;2022-10-28T04:13:52;23.33;;;7.72;;
61909;SDS011;47865;52.086;5.410;2022-10-28T04:16:18;13.30;;;6.75;;
61909;SDS011;47865;52.086;5.410;2022-10-28T04:18:45;16.80;;;7.55;;
61909;SDS011;47865;52.086;5.410;2022-10-28T04:21:12;20.08;;;7.78;;
61909;SDS011;47865;52.086;5.410;2022-10-28T04:23:39;21.35;;;7.88;;
61909;SDS011;47865;52.086;5.410;2022-10-28T04:26:05;19.40;;;7.22;;
61909;SDS011;47865;52.086;5.410;2022-10-28T04:28:32;17.88;;;7.95;;
61909;SDS011;47865;52.086;5.410;2022-10-28T04:30:59;22.60;;;7.72;;
61909;SDS011;47865;52.086;5.410;2022-10-28T04:33:27;16.92;;;8.02;;
61909;SDS011;47865;52.086;5.410;2022-10-28T04:35:54;12.75;;;6.90;;
61909;SDS011;47865;52.086;5.410;2022-10-28T04:38:21;14.00;;;7.20;;
61909;SDS011;47865;52.086;5.410;2022-10-28T04:40:53;21.60;;;7.97;;
61909;SDS011;47865;52.086;5.410;2022-10-28T04:43:20;14.65;;;7.13;;
61909;SDS011;47865;52.086;5.410;2022-10-28T04:45:47;16.77;;;6.80;;
61909;SDS011;47865;52.086;5.410;2022-10-28T04:48:13;14.85;;;6.75;;
61909;SDS011;47865;52.086;5.410;2022-10-28T04:50:40;21.70;;;7.90;;
61909;SDS011;47865;52.086;5.410;2022-10-28T04:53:10;15.55;;;7.68;;
61909;SDS011;47865;52.086;5.410;2022-10-28T04:55:37;17.77;;;7.07;;
61909;SDS011;47865;52.086;5.410;2022-10-28T04:58:04;19.92;;;7.78;;
61909;SDS011;47865;52.086;5.410;2022-10-28T05:00:31;18.33;;;8.00;;
61909;SDS011;47865;52.086;5.410;2022-10-28T05:03:01;19.17;;;8.07;;
61909;SDS011;47865;52.086;5.410;2022-10-28T05:05:28;23.10;;;8.27;;
61909;SDS011;47865;52.086;5.410;2022-10-28T05:07:55;22.00;;;8.43;;
61909;SDS011;47865;52.086;5.410;2022-10-28T05:10:22;18.80;;;7.75;;
61909;SDS011;47865;52.086;5.410;2022-10-28T05:12:49;18.42;;;8.20;;
61909;SDS011;47865;52.086;5.410;2022-10-28T05:15:16;19.88;;;6.75;;
61909;SDS011;47865;52.086;5.410;2022-10-28T05:17:43;14.85;;;7.50;;
61909;SDS011;47865;52.086;5.410;2022-10-28T05:20:11;19.95;;;7.93;;
61909;SDS011;47865;52.086;5.410;2022-10-28T05:22:44;22.55;;;8.32;;
61909;SDS011;47865;52.086;5.410;2022-10-28T05:25:12;16.58;;;7.03;;
61909;SDS011;47865;52.086;5.410;2022-10-28T05:27:39;20.13;;;7.88;;
61909;SDS011;47865;52.086;5.410;2022-10-28T05:30:06;25.30;;;8.25;;
61909;SDS011;47865;52.086;5.410;2022-10-28T05:32:33;20.75;;;7.60;;
61909;SDS011;47865;52.086;5.410;2022-10-28T05:35:00;17.10;;;7.28;;
61909;SDS011;47865;52.086;5.410;2022-10-28T05:37:27;17.52;;;7.32;;
61909;SDS011;47865;52.086;5.410;2022-10-28T05:39:53;20.95;;;6.95;;
61909;SDS011;47865;52.086;5.410;2022-10-28T05:42:20;18.52;;;7.50;;
61909;SDS011;47865;52.086;5.410;2022-10-28T05:44:47;16.85;;;8.07;;
61909;SDS011;47865;52.086;5.410;2022-10-28T05:47:13;18.58;;;7.32;;
61909;SDS011;47865;52.086;5.410;2022-10-28T05:49:40;17.77;;;7.15;;
61909;SDS011;47865;52.086;5.410;2022-10-28T05:52:07;15.65;;;7.75;;
61909;SDS011;47865;52.086;5.410;2022-10-28T05:54:33;19.05;;;8.35;;
61909;SDS011;47865;52.086;5.410;2022-10-28T05:57:00;15.85;;;6.80;;
61909;SDS011;47865;52.086;5.410;2022-10-28T05:59:27;24.45;;;12.35;;
61909;SDS011;47865;52.086;5.410;2022-10-28T06:01:54;29.17;;;11.50;;
61909;SDS011;47865;52.086;5.410;2022-10-28T06:04:21;17.63;;;8.55;;
61909;SDS011;47865;52.086;5.410;2022-10-28T06:06:47;23.05;;;8.32;;
61909;SDS011;47865;52.086;5.410;2022-10-28T06:09:14;18.67;;;7.00;;
61909;SDS011;47865;52.086;5.410;2022-10-28T06:11:41;19.83;;;7.68;;
61909;SDS011;47865;52.086;5.410;2022-10-28T06:14:07;17.63;;;6.82;;
61909;SDS011;47865;52.086;5.410;2022-10-28T06:16:34;18.40;;;6.57;;
61909;SDS011;47865;52.086;5.410;2022-10-28T06:19:01;11.77;;;5.90;;
61909;SDS011;47865;52.086;5.410;2022-10-28T06:21:28;20.55;;;7.70;;
61909;SDS011;47865;52.086;5.410;2022-10-28T06:23:54;21.55;;;6.78;;
61909;SDS011;47865;52.086;5.410;2022-10-28T06:26:21;19.20;;;6.88;;
61909;SDS011;47865;52.086;5.410;2022-10-28T06:28:48;24.42;;;7.57;;
61909;SDS011;47865;52.086;5.410;2022-10-28T06:31:14;17.95;;;6.75;;
61909;SDS011;47865;52.086;5.410;2022-10-28T06:33:41;24.35;;;7.03;;
61909;SDS011;47865;52.086;5.410;2022-10-28T06:36:08;35.80;;;8.05;;
61909;SDS011;47865;52.086;5.410;2022-10-28T06:38:35;25.02;;;7.45;;
61909;SDS011;47865;52.086;5.410;2022-10-28T06:41:02;25.52;;;7.50;;
61909;SDS011;47865;52.086;5.410;2022-10-28T06:43:28;20.73;;;6.82;;
61909;SDS011;47865;52.086;5.410;2022-10-28T06:45:59;24.73;;;7.70;;
61909;SDS011;47865;52.086;5.410;2022-10-28T06:48:26;29.73;;;7.78;;
61909;SDS011;47865;52.086;5.410;2022-10-28T06:50:54;23.35;;;7.82;;
61909;SDS011;47865;52.086;5.410;2022-10-28T06:53:23;27.08;;;8.15;;
61909;SDS011;47865;52.086;5.410;2022-10-28T06:55:53;21.00;;;7.43;;
61909;SDS011;47865;52.086;5.410;2022-10-28T06:58:22;38.00;;;8.93;;
61909;SDS011;47865;52.086;5.410;2022-10-28T07:00:49;31.27;;;8.30;;
61909;SDS011;47865;52.086;5.410;2022-10-28T07:03:16;26.67;;;8.35;;
61909;SDS011;47865;52.086;5.410;2022-10-28T07:05:46;23.58;;;7.50;;
61909;SDS011;47865;52.086;5.410;2022-10-28T07:08:15;23.45;;;7.07;;
61909;SDS011;47865;52.086;5.410;2022-10-28T07:10:42;21.83;;;7.25;;
61909;SDS011;47865;52.086;5.410;2022-10-28T07:13:09;28.80;;;7.95;;
61909;SDS011;47865;52.086;5.410;2022-10-28T07:15:35;24.63;;;7.10;;
61909;SDS011;47865;52.086;5.410;2022-10-28T07:18:02;25.60;;;7.15;;
61909;SDS011;47865;52.086;5.410;2022-10-28T07:20:29;18.23;;;7.00;;
61909;SDS011;47865;52.086;5.410;2022-10-28T07:22:58;22.58;;;6.93;;
61909;SDS011;47865;52.086;5.410;2022-10-28T07:25:27;15.80;;;6.18;;
61909;SDS011;47865;52.086;5.410;2022-10-28T07:27:57;22.55;;;6.78;;
61909;SDS011;47865;52.086;5.410;2022-10-28T07:30:25;17.80;;;6.05;;
61909;SDS011;47865;52.086;5.410;2022-10-28T07:32:53;14.40;;;6.13;;
61909;SDS011;47865;52.086;5.410;2022-10-28T07:35:21;15.23;;;6.78;;
61909;SDS011;47865;52.086;5.410;2022-10-28T07:37:48;18.77;;;6.68;;
61909;SDS011;47865;52.086;5.410;2022-10-28T07:40:14;18.67;;;7.15;;
61909;SDS011;47865;52.086;5.410;2022-10-28T07:42:41;19.92;;;7.60;;
61909;SDS011;47865;52.086;5.410;2022-10-28T07:45:08;17.02;;;7.57;;
61909;SDS011;47865;52.086;5.410;2022-10-28T07:47:35;18.05;;;8.05;;
61909;SDS011;47865;52.086;5.410;2022-10-28T07:50:02;24.88;;;8.00;;
61909;SDS011;47865;52.086;5.410;2022-10-28T07:52:30;20.23;;;8.07;;
61909;SDS011;47865;52.086;5.410;2022-10-28T07:54:57;20.95;;;7.88;;
61909;SDS011;47865;52.086;5.410;2022-10-28T07:57:24;21.50;;;7.65;;
61909;SDS011;47865;52.086;5.410;2022-10-28T07:59:51;17.20;;;7.45;;
61909;SDS011;47865;52.086;5.410;2022-10-28T08:02:19;18.90;;;7.10;;
61909;SDS011;47865;52.086;5.410;2022-10-28T08:04:47;17.30;;;6.70;;
61909;SDS011;47865;52.086;5.410;2022-10-28T08:07:15;15.48;;;6.43;;
61909;SDS011;47865;52.086;5.410;2022-10-28T08:09:42;14.95;;;6.32;;
61909;SDS011;47865;52.086;5.410;2022-10-28T08:12:11;16.27;;;6.93;;
61909;SDS011;47865;52.086;5.410;2022-10-28T08:14:39;24.08;;;7.20;;
61909;SDS011;47865;52.086;5.410;2022-10-28T08:17:07;20.15;;;7.95;;
61909;SDS011;47865;52.086;5.410;2022-10-28T08:19:33;17.52;;;7.53;;
61909;SDS011;47865;52.086;5.410;2022-10-28T08:22:00;18.23;;;6.80;;
61909;SDS011;47865;52.086;5.410;2022-10-28T08:24:28;20.20;;;7.53;;
61909;SDS011;47865;52.086;5.410;2022-10-28T08:26:54;15.25;;;6.13;;
61909;SDS011;47865;52.086;5.410;2022-10-28T08:29:21;24.90;;;7.10;;
61909;SDS011;47865;52.086;5.410;2022-10-28T08:31:55;16.58;;;7.22;;
61909;SDS011;47865;52.086;5.410;2022-10-28T08:34:22;20.35;;;6.63;;
61909;SDS011;47865;52.086;5.410;2022-10-28T08:36:55;16.90;;;6.57;;
61909;SDS011;47865;52.086;5.410;2022-10-28T08:39:22;16.10;;;6.40;;
61909;SDS011;47865;52.086;5.410;2022-10-28T08:41:51;20.45;;;7.82;;
61909;SDS011;47865;52.086;5.410;2022-10-28T08:50:09;25.52;;;6.53;;
61909;SDS011;47865;52.086;5.410;2022-10-28T08:52:49;19.58;;;6.40;;
61909;SDS011;47865;52.086;5.410;2022-10-28T08:55:32;20.02;;;6.45;;
61909;SDS011;47865;52.086;5.410;2022-10-28T08:58:14;18.27;;;6.68;;
61909;SDS011;47865;52.086;5.410;2022-10-28T09:00:52;18.10;;;7.07;;
61909;SDS011;47865;52.086;5.410;2022-10-28T09:03:25;19.25;;;6.22;;
61909;SDS011;47865;52.086;5.410;2022-10-28T09:06:00;18.80;;;6.18;;
61909;SDS011;47865;52.086;5.410;2022-10-28T09:08:30;20.15;;;6.88;;
61909;SDS011;47865;52.086;5.410;2022-10-28T09:13:56;24.58;;;6.88;;
61909;SDS011;47865;52.086;5.410;2022-10-28T09:16:44;21.58;;;6.82;;
61909;SDS011;47865;52.086;5.410;2022-10-28T09:20:02;23.38;;;7.43;;
61909;SDS011;47865;52.086;5.410;2022-10-28T09:24:55;21.20;;;6.93;;
61909;SDS011;47865;52.086;5.410;2022-10-28T09:27:36;24.80;;;7.40;;
61909;SDS011;47865;52.086;5.410;2022-10-28T09:35:39;22.33;;;6.05;;
61909;SDS011;47865;52.086;5.410;2022-10-28T09:41:18;23.70;;;6.10;;
61909;SDS011;47865;52.086;5.410;2022-10-28T09:43:52;15.57;;;5.90;;
61909;SDS011;47865;52.086;5.410;2022-10-28T09:46:29;13.23;;;6.60;;
61909;SDS011;47865;52.086;5.410;2022-10-28T09:49:03;13.90;;;5.88;;
61909;SDS011;47865;52.086;5.410;2022-10-28T09:53:58;15.50;;;5.85;;
61909;SDS011;47865;52.086;5.410;2022-10-28T09:56:26;16.42;;;6.70;;
61909;SDS011;47865;52.086;5.410;2022-10-28T09:58:56;15.57;;;5.65;;
61909;SDS011;47865;52.086;5.410;2022-10-28T10:01:25;15.07;;;5.90;;
61909;SDS011;47865;52.086;5.410;2022-10-28T10:03:56;20.88;;;6.03;;
61909;SDS011;47865;52.086;5.410;2022-10-28T10:06:36;16.55;;;6.32;;
61909;SDS011;47865;52.086;5.410;2022-10-28T10:09:04;23.17;;;5.70;;
61909;SDS011;47865;52.086;5.410;2022-10-28T10:11:39;19.52;;;5.75;;
61909;SDS011;47865;52.086;5.410;2022-10-28T10:14:10;15.45;;;5.70;;
61909;SDS011;47865;52.086;5.410;2022-10-28T10:16:41;15.48;;;5.50;;
61909;SDS011;47865;52.086;5.410;2022-10-28T10:19:19;14.85;;;6.10;;
61909;SDS011;47865;52.086;5.410;2022-10-28T10:21:50;12.60;;;5.30;;
61909;SDS011;47865;52.086;5.410;2022-10-28T10:24:25;14.43;;;5.20;;
61909;SDS011;47865;52.086;5.410;2022-10-28T10:27:01;15.90;;;5.47;;
61909;SDS011;47865;52.086;5.410;2022-10-28T10:29:35;14.93;;;6.05;;
61909;SDS011;47865;52.086;5.410;2022-10-28T10:32:19;17.73;;;6.05;;
61909;SDS011;47865;52.086;5.410;2022-10-28T10:35:00;12.63;;;4.90;;
61909;SDS011;47865;52.086;5.410;2022-10-28T10:37:32;18.60;;;6.15;;
61909;SDS011;47865;52.086;5.410;2022-10-28T10:40:05;14.23;;;5.50;;
61909;SDS011;47865;52.086;5.410;2022-10-28T10:42:33;16.58;;;5.45;;
61909;SDS011;47865;52.086;5.410;2022-10-28T10:45:24;15.25;;;5.50;;
61909;SDS011;47865;52.086;5.410;2022-10-28T10:48:05;18.60;;;6.13;;
61909;SDS011;47865;52.086;5.410;2022-10-28T10:50:37;16.00;;;5.28;;
61909;SDS011;47865;52.086;5.410;2022-10-28T10:53:04;12.85;;;5.47;;
61909;SDS011;47865;52.086;5.410;2022-10-28T10:55:36;18.42;;;5.95;;
61909;SDS011;47865;52.086;5.410;2022-10-28T10:58:05;13.38;;;5.38;;
61909;SDS011;47865;52.086;5.410;2022-10-28T11:00:45;15.05;;;5.63;;
61909;SDS011;47865;52.086;5.410;2022-10-28T11:03:22;13.23;;;5.05;;
61909;SDS011;47865;52.086;5.410;2022-10-28T11:05:59;12.40;;;5.10;;
61909;SDS011;47865;52.086;5.410;2022-10-28T11:08:47;13.75;;;4.97;;
61909;SDS011;47865;52.086;5.410;2022-10-28T11:11:20;13.50;;;5.03;;
61909;SDS011;47865;52.086;5.410;2022-10-28T11:13:48;16.27;;;5.40;;
61909;SDS011;47865;52.086;5.410;2022-10-28T11:16:29;13.60;;;5.73;;
61909;SDS011;47865;52.086;5.410;2022-10-28T11:18:55;15.65;;;5.18;;
61909;SDS011;47865;52.086;5.410;2022-10-28T11:29:45;15.35;;;5.15;;
61909;SDS011;47865;52.086;5.410;2022-10-28T11:35:33;24.95;;;6.60;;
61909;SDS011;47865;52.086;5.410;2022-10-28T11:41:08;18.48;;;5.57;;
61909;SDS011;47865;52.086;5.410;2022-10-28T12:06:22;15.68;;;4.97;;
61909;SDS011;47865;52.086;5.410;2022-10-28T12:14:41;12.95;;;4.57;;
61909;SDS011;47865;52.086;5.410;2022-10-28T12:20:30;10.10;;;4.18;;
61909;SDS011;47865;52.086;5.410;2022-10-28T12:23:12;16.52;;;5.03;;
61909;SDS011;47865;52.086;5.410;2022-10-28T12:25:42;12.60;;;4.15;;
61909;SDS011;47865;52.086;5.410;2022-10-28T12:28:18;14.43;;;5.32;;
61909;SDS011;47865;52.086;5.410;2022-10-28T12:30:50;16.98;;;5.15;;
61909;SDS011;47865;52.086;5.410;2022-10-28T12:33:19;11.70;;;4.35;;
61909;SDS011;47865;52.086;5.410;2022-10-28T12:41:07;20.63;;;4.82;;
61909;SDS011;47865;52.086;5.410;2022-10-28T12:43:51;12.68;;;4.28;;
61909;SDS011;47865;52.086;5.410;2022-10-28T12:49:23;12.90;;;4.18;;
61909;SDS011;47865;52.086;5.410;2022-10-28T12:52:01;16.08;;;5.68;;
61909;SDS011;47865;52.086;5.410;2022-10-28T12:57:46;11.77;;;4.18;;
61909;SDS011;47865;52.086;5.410;2022-10-28T13:00:20;8.98;;;4.30;;
61909;SDS011;47865;52.086;5.410;2022-10-28T13:03:01;11.40;;;4.20;;
61909;SDS011;47865;52.086;5.410;2022-10-28T13:05:32;12.95;;;4.55;;
61909;SDS011;47865;52.086;5.410;2022-10-28T13:21:53;12.80;;;4.97;;
61909;SDS011;47865;52.086;5.410;2022-10-28T13:27:04;13.57;;;4.45;;
61909;SDS011;47865;52.086;5.410;2022-10-28T13:29:35;13.07;;;4.20;;
61909;SDS011;47865;52.086;5.410;2022-10-28T13:32:03;17.10;;;4.25;;
61909;SDS011;47865;52.086;5.410;2022-10-28T13:34:31;11.35;;;4.57;;
61909;SDS011;47865;52.086;5.410;2022-10-28T13:37:01;16.55;;;4.38;;
61909;SDS011;47865;52.086;5.410;2022-10-28T13:39:43;12.32;;;4.47;;
61909;SDS011;47865;52.086;5.410;2022-10-28T13:44:51;17.02;;;4.55;;
61909;SDS011;47865;52.086;5.410;2022-10-28T13:52:39;15.43;;;4.65;;
61909;SDS011;47865;52.086;5.410;2022-10-28T13:58:13;14.07;;;4.38;;
61909;SDS011;47865;52.086;5.410;2022-10-28T14:00:46;11.77;;;4.47;;
61909;SDS011;47865;52.086;5.410;2022-10-28T14:11:06;20.95;;;5.43;;
61909;SDS011;47865;52.086;5.410;2022-10-28T14:13:50;18.20;;;4.80;;
61909;SDS011;47865;52.086;5.410;2022-10-28T14:16:22;18.70;;;5.25;;
61909;SDS011;47865;52.086;5.410;2022-10-28T14:19:17;19.70;;;5.93;;
61909;SDS011;47865;52.086;5.410;2022-10-28T14:24:32;21.60;;;4.70;;
61909;SDS011;47865;52.086;5.410;2022-10-28T14:29:44;15.83;;;4.83;;
61909;SDS011;47865;52.086;5.410;2022-10-28T14:35:01;19.23;;;4.32;;
61909;SDS011;47865;52.086;5.410;2022-10-28T14:37:46;18.50;;;4.93;;
61909;SDS011;47865;52.086;5.410;2022-10-28T14:48:49;18.75;;;4.65;;
61909;SDS011;47865;52.086;5.410;2022-10-28T14:51:19;13.95;;;4.75;;
61909;SDS011;47865;52.086;5.410;2022-10-28T14:53:57;12.18;;;4.20;;
61909;SDS011;47865;52.086;5.410;2022-10-28T14:56:28;19.10;;;4.82;;
61909;SDS011;47865;52.086;5.410;2022-10-28T14:58:57;11.77;;;4.82;;
61909;SDS011;47865;52.086;5.410;2022-10-28T15:04:20;18.48;;;4.40;;
61909;SDS011;47865;52.086;5.410;2022-10-28T15:06:48;11.80;;;4.07;;
61909;SDS011;47865;52.086;5.410;2022-10-28T15:09:18;16.08;;;4.95;;
61909;SDS011;47865;52.086;5.410;2022-10-28T15:17:42;17.33;;;4.85;;
61909;SDS011;47865;52.086;5.410;2022-10-28T15:23:17;16.33;;;6.60;;
61909;SDS011;47865;52.086;5.410;2022-10-28T15:25:45;12.45;;;5.82;;
61909;SDS011;47865;52.086;5.410;2022-10-28T15:28:42;16.35;;;5.75;;
61909;SDS011;47865;52.086;5.410;2022-10-28T15:31:08;14.10;;;6.03;;
61909;SDS011;47865;52.086;5.410;2022-10-28T15:33:36;12.63;;;5.85;;
61909;SDS011;47865;52.086;5.410;2022-10-28T15:36:09;13.32;;;4.70;;
61909;SDS011;47865;52.086;5.410;2022-10-28T15:38:49;12.87;;;5.03;;
61909;SDS011;47865;52.086;5.410;2022-10-28T15:44:03;18.60;;;6.13;;
61909;SDS011;47865;52.086;5.410;2022-10-28T15:46:31;13.55;;;4.75;;
61909;SDS011;47865;52.086;5.410;2022-10-28T15:48:59;17.83;;;4.70;;
61909;SDS011;47865;52.086;5.410;2022-10-28T15:51:27;12.73;;;4.70;;
61909;SDS011;47865;52.086;5.410;2022-10-28T15:54:08;13.85;;;4.70;;
61909;SDS011;47865;52.086;5.410;2022-10-28T15:59:23;16.55;;;4.22;;
61909;SDS011;47865;52.086;5.410;2022-10-28T16:01:50;11.85;;;3.67;;
61909;SDS011;47865;52.086;5.410;2022-10-28T16:06:51;17.33;;;3.97;;
61909;SDS011;47865;52.086;5.410;2022-10-28T16:09:27;16.17;;;4.10;;
61909;SDS011;47865;52.086;5.410;2022-10-28T16:12:00;12.20;;;3.63;;
61909;SDS011;47865;52.086;5.410;2022-10-28T16:14:47;13.57;;;4.53;;
61909;SDS011;47865;52.086;5.410;2022-10-28T16:17:25;13.93;;;4.20;;
61909;SDS011;47865;52.086;5.410;2022-10-28T16:19:55;12.63;;;4.65;;
61909;SDS011;47865;52.086;5.410;2022-10-28T16:22:28;11.57;;;4.60;;
61909;SDS011;47865;52.086;5.410;2022-10-28T16:24:56;12.88;;;5.18;;
61909;SDS011;47865;52.086;5.410;2022-10-28T16:27:24;11.95;;;4.65;;
61909;SDS011;47865;52.086;5.410;2022-10-28T16:29:52;12.00;;;4.70;;
61909;SDS011;47865;52.086;5.410;2022-10-28T16:32:30;15.20;;;4.53;;
61909;SDS011;47865;52.086;5.410;2022-10-28T16:35:12;11.60;;;4.80;;
61909;SDS011;47865;52.086;5.410;2022-10-28T16:37:42;13.57;;;5.22;;
61909;SDS011;47865;52.086;5.410;2022-10-28T16:40:11;17.40;;;5.13;;
61909;SDS011;47865;52.086;5.410;2022-10-28T16:43:00;15.65;;;5.28;;
61909;SDS011;47865;52.086;5.410;2022-10-28T16:45:27;16.80;;;5.03;;
61909;SDS011;47865;52.086;5.410;2022-10-28T16:47:53;16.80;;;5.28;;
61909;SDS011;47865;52.086;5.410;2022-10-28T16:50:20;18.13;;;6.20;;
61909;SDS011;47865;52.086;5.410;2022-10-28T16:52:47;17.58;;;5.47;;
61909;SDS011;47865;52.086;5.410;2022-10-28T16:55:14;13.73;;;5.18;;
61909;SDS011;47865;52.086;5.410;2022-10-28T16:57:42;17.70;;;5.57;;
61909;SDS011;47865;52.086;5.410;2022-10-28T17:00:11;13.98;;;4.97;;
61909;SDS011;47865;52.086;5.410;2022-10-28T17:02:38;13.98;;;4.63;;
61909;SDS011;47865;52.086;5.410;2022-10-28T17:05:08;11.38;;;4.85;;
61909;SDS011;47865;52.086;5.410;2022-10-28T17:07:45;15.18;;;5.07;;
61909;SDS011;47865;52.086;5.410;2022-10-28T17:10:12;16.80;;;4.45;;
61909;SDS011;47865;52.086;5.410;2022-10-28T17:12:40;15.65;;;5.20;;
61909;SDS011;47865;52.086;5.410;2022-10-28T17:15:07;14.70;;;4.93;;
61909;SDS011;47865;52.086;5.410;2022-10-28T17:17:35;16.67;;;5.57;;
61909;SDS011;47865;52.086;5.410;2022-10-28T17:20:01;13.23;;;5.25;;
61909;SDS011;47865;52.086;5.410;2022-10-28T17:22:29;12.70;;;5.05;;
61909;SDS011;47865;52.086;5.410;2022-10-28T17:24:56;16.00;;;6.22;;
61909;SDS011;47865;52.086;5.410;2022-10-28T17:27:23;15.27;;;6.65;;
61909;SDS011;47865;52.086;5.410;2022-10-28T17:29:50;14.57;;;6.63;;
61909;SDS011;47865;52.086;5.410;2022-10-28T17:32:17;11.85;;;5.20;;
61909;SDS011;47865;52.086;5.410;2022-10-28T17:34:44;16.30;;;5.60;;
61909;SDS011;47865;52.086;5.410;2022-10-28T17:37:10;15.20;;;7.45;;
61909;SDS011;47865;52.086;5.410;2022-10-28T17:39:37;17.75;;;7.78;;
61909;SDS011;47865;52.086;5.410;2022-10-28T17:42:04;20.60;;;7.80;;
61909;SDS011;47865;52.086;5.410;2022-10-28T17:44:31;20.55;;;8.25;;
61909;SDS011;47865;52.086;5.410;2022-10-28T17:46:57;20.02;;;6.38;;
61909;SDS011;47865;52.086;5.410;2022-10-28T17:49:24;19.50;;;6.63;;
61909;SDS011;47865;52.086;5.410;2022-10-28T17:51:51;15.85;;;6.90;;
61909;SDS011;47865;52.086;5.410;2022-10-28T17:54:18;17.20;;;7.40;;